ジョモ・ケニヤッタ国際空港の過去48時間の天気

ジョモ・ケニヤッタ国際空港 (Nairobi/Jomo Kenyatta Airport)

現在時刻: 9/16 06:10 EAT (9/16 03:10 UTC) 以下の時間は現地時間です。

過去48時間のMETAR気象情報
時間 風向 風速(m/s) 視程 気温(℃) 湿度(%) 気圧(hPa) 天気現象
16 05:00 静穏 0 10km以上 16 88 1022
16 04:30 静穏 0 10km以上 16 88 1022
16 04:00 不定 1 10km以上 16 88 1022
16 03:30 2 10km以上 14 88 1021
16 03:00 東北東 3 10km以上 15 82 1021
16 02:30 東北東 3 10km以上 15 82 1021
16 02:00 3 10km以上 15 82 1021
16 01:30 北北東 4 10km以上 17 68 1022
16 01:00 北北東 4 10km以上 17 68 1022
16 00:30 北東 5 10km以上 17 68 1022
16 00:00 北東 5 10km以上 18 64 1022
15 23:30 北東 4 10km以上 18 64 1023
15 23:00 東北東 4 10km以上 19 60 1023
15 22:30 東北東 4 10km以上 19 60 1023
15 22:00 6 10km以上 20 56 1022
15 21:30 5 10km以上 20 56 1022
15 21:00 5 10km以上 20 56 1022
15 20:30 5 10km以上 21 53 1022
15 20:00 7 10km以上 22 50 1021
15 19:30 8 10km以上 23 47 1021
15 19:00 8 10km以上 24 41 1021
15 18:30 8 10km以上 24 44 1020
15 18:00 8 10km以上 25 39 1020
15 17:30 8 10km以上 26 37 1019
15 17:00 8 10km以上 27 32 1019
15 16:30 4 10km以上 28 30 1019
15 16:00 北東 3 10km以上 28 32 1019
15 15:30 東南東 4 10km以上 27 34 1020
15 15:00 5 10km以上 27 34 1020
15 14:30 不定 2 10km以上 28 35 1020
15 14:00 3 10km以上 27 37 1021
15 13:30 3 10km以上 27 37 1022
15 13:00 4 10km以上 26 42 1022
15 12:30 3 10km以上 26 42 1023
15 12:00 不定 2 10km以上 24 50 1023
15 11:30 北東 2 10km以上 23 53 1024
15 11:00 3 10km以上 23 53 1024
15 10:30 不定 1 10km以上 22 60 1025
15 10:00 不定 2 10km以上 21 60 1025
15 09:30 不定 1 10km以上 20 68 1025
15 09:00 不定 1 10km以上 19 73 1025
15 08:30 不定 1 10km以上 18 77 1024
15 08:00 不定 1 10km以上 18 77 1024
15 07:30 南南西 2 10km以上 17 83 1024
15 06:30 不定 2 10km以上 16 94 1023
15 06:00 不定 1 10km以上 16 94 1023
15 05:30 2 10km以上 16 94 1022
15 05:00 北東 2 10km以上 16 94 1022
15 04:30 北東 3 10km以上 16 88 1022
15 03:30 東北東 5 10km以上 17 77 1022
15 03:00 北北東 5 10km以上 16 82 1022
15 02:00 北北東 4 10km以上 17 77 1021
15 01:30 北北東 4 10km以上 17 72 1022
15 01:00 北北東 4 10km以上 17 72 1022
15 00:30 北東 4 10km以上 18 68 1022
15 00:00 東北東 4 10km以上 18 68 1023
14 23:30 東北東 5 10km以上 19 68 1023
14 23:00 東北東 7 10km以上 19 64 1023
14 22:30 東北東 5 10km以上 20 60 1023
14 22:00 東北東 6 10km以上 20 60 1023
14 21:30 東北東 5 10km以上 20 60 1022
14 21:00 5 10km以上 21 60 1022
14 20:00 6 10km以上 22 50 1021
14 19:30 7 10km以上 23 47 1021
14 19:00 7 10km以上 23 44 1021
14 18:00 8 10km以上 26 37 1020
14 17:30 8 10km以上 27 34 1020
14 17:00 4 10km以上 28 32 1019
14 16:30 東北東 4 10km以上 27 34 1019
14 16:00 5 10km以上 28 32 1019
14 15:30 5 10km以上 28 32 1019
14 15:00 3 10km以上 29 31 1020
14 13:30 不定 2 10km以上 27 37 1021
14 13:00 4 10km以上 26 45 1022
14 12:30 3 10km以上 26 45 1023
14 12:00 3 10km以上 24 47 1023
14 11:30 不定 2 10km以上 24 50 1024
14 11:00 3 10km以上 22 57 1024
14 10:30 不定 2 10km以上 21 64 1025
14 10:00 不定 2 10km以上 20 68 1025
14 09:30 北北東 3 10km以上 19 68 1025
14 09:00 北東 3 10km以上 18 77 1025
14 08:30 東北東 3 10km以上 18 77 1024
14 08:00 東北東 3 10km以上 17 88 1024
14 07:30 北東 2 10km以上 16 88 1024
14 07:00 北東 2 10km以上 15 94 1023
14 06:30 北東 2 10km以上 16 88 1023
HKJK 160200Z 00000KT 9999 SCT010 BKN015 16/14 Q1022 TEMPO TL0500 SCT008 OVC014
HKJK 160130Z 00000KT 9999 SCT009 BKN015 16/14 Q1022 BECMG SCT008 BKN014
HKJK 160100Z VRB02KT 9999 SCT009 BKN016 16/14 Q1022 NOSIG
HKJK 160030Z 01003KT CAVOK 14/12 Q1021 NOSIG
HKJK 160000Z 06005KT CAVOK 15/12 Q1021 NOSIG
HKJK 152330Z 06005KT CAVOK 15/12 Q1021 NOSIG
HKJK 152300Z 01005KT CAVOK 15/12 Q1021 NOSIG
HKJK 152230Z 03008KT CAVOK 17/11 Q1022 NOSIG
HKJK 152200Z 03007KT CAVOK 17/11 Q1022 NOSIG
HKJK 152130Z 05009KT CAVOK 17/11 Q1022 NOSIG
HKJK 152100Z 05009KT CAVOK 18/11 Q1022 NOSIG
HKJK 152030Z 05008KT 9999 SCT030 18/11 Q1023 NOSIG
HKJK 152000Z 06007KT 9999 SCT030 19/11 Q1023 NOSIG
HKJK 151930Z 07008KT CAVOK 19/11 Q1023 NOSIG
HKJK 151900Z 09011KT CAVOK 20/11 Q1022 NOSIG
HKJK 151830Z 08010KT CAVOK 20/11 Q1022 NOSIG
HKJK 151800Z 08009KT CAVOK 20/11 Q1022 NOSIG
HKJK 151730Z 10010KT 9999 FEW032 21/11 Q1022 NOSIG
HKJK 151700Z 09013KT 9999 FEW032 22/11 Q1021 NOSIG
HKJK 151630Z 09015KT 9999 SCT033 23/11 Q1021 NOSIG
HKJK 151600Z 09015KT 9999 SCT033 24/10 Q1021 NOSIG
HKJK 151530Z 09016KT 9999 SCT033 24/11 Q1020 NOSIG
HKJK 151500Z 09015KT 9999 SCT034 25/10 Q1020 NOSIG
HKJK 151430Z 08015KT 9999 SCT034 26/10 Q1019 NOSIG
HKJK 151400Z 08015KT 9999 SCT034 27/09 Q1019 NOSIG
HKJK 151330Z 08008KT 9999 SCT034 28/09 Q1019 NOSIG
HKJK 151300Z 05006KT 9999 SCT034 28/10 Q1019 NOSIG
HKJK 151230Z 11007KT 9999 SCT033 27/10 Q1020 NOSIG
HKJK 151200Z 09009KT 9999 SCT033 27/10 Q1020 NOSIG
HKJK 151130Z VRB04KT 9999 SCT033 28/11 Q1020 NOSIG
HKJK 151100Z VRB06KT 9999 SCT032 27/11 Q1021 NOSIG
HKJK 151030Z VRB05KT 9999 SCT030 27/11 Q1022 NOSIG
HKJK 151000Z 09007KT 9999 SCT030 26/12 Q1022 NOSIG
HKJK 150930Z VRB06KT 9999 SCT028 26/12 Q1023 NOSIG
HKJK 150900Z VRB04KT 9999 SCT027 24/13 Q1023 NOSIG
HKJK 150830Z 05004KT 9999 SCT026 23/13 Q1024 NOSIG
HKJK 150800Z VRB05KT 9999 SCT026 23/13 Q1024 NOSIG
HKJK 150730Z VRB02KT 9999 SCT025 22/14 Q1025 NOSIG
HKJK 150700Z VRB03KT 9999 BKN024 21/13 Q1025 NOSIG
HKJK 150630Z VRB02KT 9999 BKN022 20/14 Q1025 NOSIG
HKJK 150600Z VRB02KT 9999 SCT020 BKN030 19/14 Q1025 NOSIG
HKJK 150530Z VRB02KT 9999 BKN018 18/14 Q1024 NOSIG
HKJK 150500Z VRB02KT 9999 BKN018 18/14 Q1024 NOSIG
HKJK 150430Z 20004KT 9999 BKN017 17/14 Q1024 NOSIG
HKJK 150330Z VRB03KT 9999 BKN016 16/15 Q1023 NOSIG
HKJK 150300Z VRB02KT 9999 BKN016 16/15 Q1023 NOSIG
HKJK 150230Z 08003KT 9999 BKN016 16/15 Q1022 NOSIG
HKJK 150200Z 05004KT 9999 BKN016 16/15 Q1022 NOSIG
HKJK 150130Z 05006KT 9999 BKN016 16/14 Q1022 NOSIG
HKJK 150030Z 06010KT 9999 BKN017 17/13 Q1022 NOSIG
HKJK 150000Z 02009KT 9999 BKN018 16/13 Q1022 NOSIG
HKJK 142300Z 02008KT 9999 FEW020 17/13 Q1021 NOSIG
HKJK 142230Z 03007KT 9999 FEW022 17/12 Q1022 NOSIG
HKJK 142200Z 03008KT 9999 FEW022 17/12 Q1022 NOSIG
HKJK 142130Z 04008KT 9999 SCT024 18/12 Q1022 NOSIG
HKJK 142100Z 06007KT 9999 SCT024 18/12 Q1023 NOSIG
HKJK 142030Z 06010KT 9999 SCT025 19/13 Q1023 NOSIG
HKJK 142000Z 07013KT 9999 SCT025 19/12 Q1023 NOSIG
HKJK 141930Z 07010KT 9999 BKN025 20/12 Q1023 NOSIG
HKJK 141900Z 07011KT 9999 BKN025 20/12 Q1023 NOSIG
HKJK 141830Z 07010KT CAVOK 20/12 Q1022 NOSIG
HKJK 141800Z 08010KT CAVOK 21/13 Q1022 NOSIG
HKJK 141700Z 09012KT CAVOK 22/11 Q1021 NOSIG
HKJK 141630Z 09013KT 9999 SCT028 23/11 Q1021 NOSIG
HKJK 141600Z 09013KT 9999 SCT029 23/10 Q1021 NOSIG
HKJK 141500Z 08015KT 9999 SCT032 26/10 Q1020 NOSIG
HKJK 141430Z 09015KT 9999 SCT032 27/10 Q1020 NOSIG
HKJK 141400Z 08008KT 9999 SCT032 28/10 Q1019 NOSIG
HKJK 141330Z 07007KT 9999 BKN032 27/10 Q1019 NOSIG
HKJK 141300Z 10010KT 9999 BKN032 28/10 Q1019 NOSIG
HKJK 141230Z 09009KT 9999 SCT031 28/10 Q1019 NOSIG
HKJK 141200Z 08006KT 9999 SCT030 29/10 Q1020 NOSIG
HKJK 141030Z VRB04KT 9999 SCT027 27/11 Q1021 NOSIG
HKJK 141000Z VRB07KT 9999 SCT026 26/13 Q1022 NOSIG
HKJK 140930Z VRB06KT 9999 SCT025 26/13 Q1023 NOSIG
HKJK 140900Z VRB06KT 9999 SCT025 24/12 Q1023 NOSIG
HKJK 140830Z VRB03KT 9999 SCT024 24/13 Q1024 NOSIG
HKJK 140800Z VRB05KT 9999 SCT023 22/13 Q1024 NOSIG
HKJK 140730Z VRB03KT 9999 BKN022 21/14 Q1025 NOSIG
HKJK 140700Z VRB03KT 9999 BKN022 20/14 Q1025 NOSIG
HKJK 140630Z 03006KT 9999 BKN021 19/13 Q1025 NOSIG
HKJK 140600Z 05005KT 9999 BKN020 18/14 Q1025 NOSIG
HKJK 140530Z 07006KT 9999 SCT006 BKN019 18/14 Q1024 NOSIG
HKJK 140500Z 06006KT 9999 FEW006 BKN018 17/15 Q1024 NOSIG
HKJK 140430Z 05003KT 9999 SCT018 16/14 Q1024 NOSIG
HKJK 140400Z 05003KT 9999 FEW018 15/14 Q1023 NOSIG
HKJK 140330Z 05004KT 9999 BKN018 16/14 Q1023 NOSIG